createdAt,value
2018-02-12T00:00:53.686Z,929.26
2018-02-12T00:01:53.679Z,929.27
2018-02-12T00:02:53.672Z,929.25
2018-02-12T00:03:53.664Z,929.24
2018-02-12T00:04:53.656Z,929.28
2018-02-12T00:05:53.650Z,929.25
2018-02-12T00:06:53.642Z,929.31
2018-02-12T00:07:53.634Z,929.28
2018-02-12T00:08:53.628Z,929.26
2018-02-12T00:09:53.621Z,929.24
2018-02-12T00:10:53.613Z,929.26
2018-02-12T00:11:53.605Z,929.30
2018-02-12T00:12:53.600Z,929.29
2018-02-12T00:13:53.593Z,929.36
2018-02-12T00:14:53.585Z,929.31
2018-02-12T00:15:53.577Z,929.34
2018-02-12T00:16:53.571Z,929.32
2018-02-12T00:17:53.563Z,929.33
2018-02-12T00:18:53.595Z,929.31
2018-02-12T00:19:53.550Z,929.31
2018-02-12T00:20:53.543Z,929.34
2018-02-12T00:21:53.537Z,929.31
2018-02-12T00:22:53.527Z,929.30
2018-02-12T00:23:53.521Z,929.36
2018-02-12T00:24:53.514Z,929.33
2018-02-12T00:25:53.507Z,929.34
2018-02-12T00:26:53.499Z,929.32
2018-02-12T00:27:53.492Z,929.31
2018-02-12T00:28:53.530Z,929.33
2018-02-12T00:29:53.478Z,929.34
2018-02-12T00:30:53.470Z,929.38
2018-02-12T00:31:53.464Z,929.32
2018-02-12T00:32:53.457Z,929.37
2018-02-12T00:33:53.450Z,929.38
2018-02-12T00:34:53.442Z,929.39
2018-02-12T00:35:53.435Z,929.37
2018-02-12T00:36:53.430Z,929.37
2018-02-12T00:37:53.423Z,929.38
2018-02-12T00:38:53.416Z,929.36
2018-02-12T00:39:53.409Z,929.39
2018-02-12T00:40:53.403Z,929.35
2018-02-12T00:41:53.395Z,929.35
2018-02-12T00:42:53.387Z,929.42
2018-02-12T00:43:53.382Z,929.38
2018-02-12T00:44:53.379Z,929.37
2018-02-12T00:45:53.368Z,929.40
2018-02-12T00:46:53.360Z,929.40
2018-02-12T00:47:53.353Z,929.40
2018-02-12T00:48:53.347Z,929.38
2018-02-12T00:49:53.340Z,929.38
2018-02-12T00:50:53.333Z,929.42
2018-02-12T00:51:53.326Z,929.40
2018-02-12T00:52:53.321Z,929.44
2018-02-12T00:53:53.315Z,929.47
2018-02-12T00:54:53.306Z,929.43
2018-02-12T00:55:53.300Z,929.47
2018-02-12T00:56:53.293Z,929.47
2018-02-12T00:57:53.287Z,929.49
2018-02-12T00:58:53.280Z,929.47
2018-02-12T00:59:53.274Z,929.50
2018-02-12T01:00:53.267Z,929.49
2018-02-12T01:01:53.262Z,929.49
2018-02-12T01:02:53.255Z,929.45
2018-02-12T01:03:53.247Z,929.40
2018-02-12T01:04:53.241Z,929.45
2018-02-12T01:05:53.235Z,929.43
2018-02-12T01:06:53.227Z,929.38
2018-02-12T01:07:53.220Z,929.39
2018-02-12T01:08:53.215Z,929.35
2018-02-12T01:09:53.208Z,929.33
2018-02-12T01:10:53.200Z,929.34
2018-02-12T01:11:53.194Z,929.34
2018-02-12T01:12:53.186Z,929.37
2018-02-12T01:13:53.179Z,929.33
2018-02-12T01:14:53.173Z,929.34
2018-02-12T01:15:53.166Z,929.33
2018-02-12T01:16:53.159Z,929.33
2018-02-12T01:17:53.154Z,929.38
2018-02-12T01:18:53.147Z,929.37
2018-02-12T01:19:53.140Z,929.36
2018-02-12T01:20:53.133Z,929.39
2018-02-12T01:21:53.127Z,929.37
2018-02-12T01:22:53.120Z,929.40
2018-02-12T01:23:53.113Z,929.36
2018-02-12T01:24:53.106Z,929.32
2018-02-12T01:25:53.101Z,929.33
2018-02-12T01:26:53.093Z,929.30
2018-02-12T01:27:53.087Z,929.28
2018-02-12T01:28:53.080Z,929.29
2018-02-12T01:29:53.074Z,929.25
2018-02-12T01:30:53.066Z,929.27
2018-02-12T01:31:53.062Z,929.24
2018-02-12T01:32:53.054Z,929.29
2018-02-12T01:33:53.048Z,929.27
2018-02-12T01:34:53.040Z,929.26
2018-02-12T01:35:53.033Z,929.28
2018-02-12T01:36:53.027Z,929.31
2018-02-12T01:37:53.022Z,929.25
2018-02-12T01:38:53.014Z,929.31
2018-02-12T01:39:53.007Z,929.27
2018-02-12T01:41:53.039Z,929.25
2018-02-12T01:42:52.988Z,929.23
2018-02-12T01:43:52.980Z,929.25
2018-02-12T01:44:52.975Z,929.26
2018-02-12T01:45:52.970Z,929.27
2018-02-12T01:46:52.966Z,929.26
2018-02-12T01:47:52.955Z,929.25
2018-02-12T01:48:52.948Z,929.23
2018-02-12T01:49:52.942Z,929.27
2018-02-12T01:50:52.936Z,929.24
2018-02-12T01:51:52.928Z,929.24
2018-02-12T01:52:52.921Z,929.23
2018-02-12T01:53:52.915Z,929.23
2018-02-12T01:54:52.906Z,929.25
2018-02-12T01:55:52.900Z,929.26
2018-02-12T01:56:52.894Z,929.25
2018-02-12T01:57:52.889Z,929.26
2018-02-12T01:58:52.882Z,929.26
2018-02-12T01:59:52.875Z,929.28
2018-02-12T02:00:52.869Z,929.24
2018-02-12T02:01:52.867Z,929.27
2018-02-12T02:02:52.893Z,929.29
2018-02-12T02:03:52.849Z,929.33
2018-02-12T02:04:52.842Z,929.26
2018-02-12T02:05:52.835Z,929.29
2018-02-12T02:06:52.828Z,929.28
2018-02-12T02:07:52.821Z,929.29
2018-02-12T02:08:52.815Z,929.28
2018-02-12T02:09:52.809Z,929.24
2018-02-12T02:10:52.801Z,929.31
2018-02-12T02:11:52.794Z,929.24
2018-02-12T02:12:52.788Z,929.21
2018-02-12T02:13:52.783Z,929.25
2018-02-12T02:14:52.774Z,929.22
2018-02-12T02:15:52.768Z,929.23
2018-02-12T02:16:52.763Z,929.20
2018-02-12T02:17:52.756Z,929.20
2018-02-12T02:18:52.748Z,929.18
2018-02-12T02:19:52.742Z,929.16
2018-02-12T02:20:52.735Z,929.15
2018-02-12T02:21:52.728Z,929.18
2018-02-12T02:22:52.721Z,929.19
2018-02-12T02:23:52.715Z,929.17
2018-02-12T02:24:52.709Z,929.16
2018-02-12T02:25:52.703Z,929.14
2018-02-12T02:26:52.694Z,929.18
2018-02-12T02:27:52.687Z,929.18
2018-02-12T02:28:52.681Z,929.10
2018-02-12T02:29:52.679Z,929.10
2018-02-12T02:30:52.667Z,929.11
2018-02-12T02:31:52.660Z,929.17
2018-02-12T02:32:52.654Z,929.12
2018-02-12T02:33:52.649Z,929.04
2018-02-12T02:34:52.640Z,929.07
2018-02-12T02:35:52.633Z,929.05
2018-02-12T02:36:52.627Z,929.01
2018-02-12T02:37:52.621Z,928.99
2018-02-12T02:38:52.613Z,928.94
2018-02-12T02:39:52.606Z,928.96
2018-02-12T02:40:52.600Z,928.92
2018-02-12T02:41:52.593Z,928.96
2018-02-12T02:42:52.586Z,928.95
2018-02-12T02:43:52.578Z,928.94
2018-02-12T02:44:52.573Z,928.93
2018-02-12T02:45:52.567Z,928.94
2018-02-12T02:46:52.559Z,928.98
2018-02-12T02:47:52.553Z,928.95
2018-02-12T02:48:52.545Z,928.95
2018-02-12T02:49:52.541Z,929.00
2018-02-12T02:50:52.532Z,929.02
2018-02-12T02:51:52.525Z,928.99
2018-02-12T02:52:52.517Z,929.01
2018-02-12T02:53:52.512Z,929.01
2018-02-12T02:54:52.504Z,929.01
2018-02-12T02:55:52.504Z,928.98
2018-02-12T02:56:52.490Z,928.97
2018-02-12T02:57:52.484Z,928.93
2018-02-12T02:58:52.476Z,928.95
2018-02-12T02:59:52.470Z,928.95
2018-02-12T03:00:52.463Z,928.92
2018-02-12T03:01:52.456Z,928.92
2018-02-12T03:02:52.448Z,928.94
2018-02-12T03:03:52.441Z,928.90
2018-02-12T03:04:52.434Z,928.94
2018-02-12T03:05:52.429Z,928.89
2018-02-12T03:06:52.421Z,928.90
2018-02-12T03:07:52.414Z,928.90
2018-02-12T03:08:52.409Z,928.86
2018-02-12T03:09:52.403Z,928.84
2018-02-12T03:10:52.394Z,928.80
2018-02-12T03:11:52.388Z,928.82
2018-02-12T03:12:52.381Z,928.84
2018-02-12T03:13:52.375Z,928.86
2018-02-12T03:14:52.367Z,928.86
2018-02-12T03:15:52.360Z,928.86
2018-02-12T03:16:52.354Z,928.85
2018-02-12T03:17:52.348Z,928.84
2018-02-12T03:18:52.339Z,928.84
2018-02-12T03:19:52.333Z,928.72
2018-02-12T03:20:52.325Z,928.79
2018-02-12T03:21:52.320Z,928.82
2018-02-12T03:22:52.312Z,928.84
2018-02-12T03:23:52.304Z,928.77
2018-02-12T03:24:52.298Z,928.84
2018-02-12T03:25:52.291Z,928.80
2018-02-12T03:26:52.283Z,928.83
2018-02-12T03:27:52.276Z,928.81
2018-02-12T03:28:52.271Z,928.80
2018-02-12T03:29:52.264Z,928.81
2018-02-12T03:30:52.257Z,928.80
2018-02-12T03:31:52.249Z,928.81
2018-02-12T03:32:52.244Z,928.83
2018-02-12T03:33:52.236Z,928.81
2018-02-12T03:34:52.229Z,928.79
2018-02-12T03:35:52.222Z,928.81
2018-02-12T03:36:52.216Z,928.78
2018-02-12T03:37:52.209Z,928.83
2018-02-12T03:38:52.201Z,928.80
2018-02-12T03:39:52.194Z,928.77
2018-02-12T03:40:52.187Z,928.78
2018-02-12T03:41:52.181Z,928.79
2018-02-12T03:42:52.173Z,928.79
2018-02-12T03:43:52.166Z,928.75
2018-02-12T03:44:52.162Z,928.75
2018-02-12T03:45:52.152Z,928.77
2018-02-12T03:46:52.145Z,928.72
2018-02-12T03:47:52.138Z,928.68
2018-02-12T03:48:52.131Z,928.71
2018-02-12T03:49:52.125Z,928.71
2018-02-12T03:50:52.119Z,928.69
2018-02-12T03:51:52.109Z,928.73
2018-02-12T03:52:52.103Z,928.72
2018-02-12T03:53:52.097Z,928.71
2018-02-12T03:54:52.089Z,928.70
2018-02-12T03:55:52.083Z,928.71
2018-02-12T03:56:52.076Z,928.73
2018-02-12T03:57:52.069Z,928.67
2018-02-12T03:58:52.061Z,928.72
2018-02-12T03:59:52.054Z,928.67
2018-02-12T04:00:52.048Z,928.72
2018-02-12T04:01:52.041Z,928.69
2018-02-12T04:02:52.033Z,928.71
2018-02-12T04:03:52.025Z,928.72
2018-02-12T04:04:52.021Z,928.71
2018-02-12T04:05:52.011Z,928.72
2018-02-12T04:06:52.006Z,928.70
2018-02-12T04:07:51.998Z,928.71
2018-02-12T04:08:51.989Z,928.72
2018-02-12T04:09:51.983Z,928.69
2018-02-12T04:10:51.976Z,928.70
2018-02-12T04:11:51.968Z,928.68
2018-02-12T04:12:51.963Z,928.70
2018-02-12T04:13:51.954Z,928.68
2018-02-12T04:14:51.950Z,928.69
2018-02-12T04:15:51.939Z,928.62
2018-02-12T04:16:51.932Z,928.62
2018-02-12T04:17:51.927Z,928.59
2018-02-12T04:18:51.919Z,928.60
2018-02-12T04:19:51.913Z,928.58
2018-02-12T04:20:51.905Z,928.58
2018-02-12T04:21:51.898Z,928.55
2018-02-12T04:22:51.891Z,928.58
2018-02-12T04:23:51.884Z,928.54
2018-02-12T04:24:51.930Z,928.59
2018-02-12T04:25:51.871Z,928.59
2018-02-12T04:26:51.863Z,928.53
2018-02-12T04:27:51.856Z,928.56
2018-02-12T04:28:51.849Z,928.57
2018-02-12T04:29:51.841Z,928.52
2018-02-12T04:30:51.833Z,928.57
2018-02-12T04:31:51.830Z,928.53
2018-02-12T04:32:51.821Z,928.52
2018-02-12T04:33:51.814Z,928.59
2018-02-12T04:34:51.806Z,928.53
2018-02-12T04:35:51.799Z,928.51
2018-02-12T04:36:51.796Z,928.50
2018-02-12T04:37:51.785Z,928.53
2018-02-12T04:38:51.778Z,928.56
2018-02-12T04:39:51.770Z,928.54
2018-02-12T04:40:51.764Z,928.60
2018-02-12T04:41:51.757Z,928.59
2018-02-12T04:42:51.749Z,928.56
2018-02-12T04:43:51.742Z,928.59
2018-02-12T04:44:51.735Z,928.56
2018-02-12T04:45:51.728Z,928.58
2018-02-12T04:46:51.721Z,928.61
2018-02-12T04:47:51.716Z,928.63
2018-02-12T04:48:51.709Z,928.58
2018-02-12T04:49:51.703Z,928.59
2018-02-12T04:50:51.692Z,928.63
2018-02-12T04:51:51.687Z,928.64
2018-02-12T04:52:51.680Z,928.61
2018-02-12T04:53:51.672Z,928.65
2018-02-12T04:54:51.666Z,928.59
2018-02-12T04:55:51.658Z,928.62
2018-02-12T04:56:51.653Z,928.61
2018-02-12T04:57:51.644Z,928.64
2018-02-12T04:58:51.638Z,928.62
2018-02-12T04:59:51.631Z,928.62
2018-02-12T05:00:51.624Z,928.64
2018-02-12T05:01:51.619Z,928.59
2018-02-12T05:02:51.610Z,928.61
2018-02-12T05:03:51.602Z,928.60
2018-02-12T05:04:51.596Z,928.61
2018-02-12T05:05:51.590Z,928.66
2018-02-12T05:06:51.581Z,928.63
2018-02-12T05:07:51.574Z,928.68
2018-02-12T05:08:51.567Z,928.67
2018-02-12T05:09:51.561Z,928.71
2018-02-12T05:10:51.553Z,928.71
2018-02-12T05:11:51.549Z,928.73
2018-02-12T05:12:51.540Z,928.79
2018-02-12T05:13:51.533Z,928.81
2018-02-12T05:14:51.526Z,928.85
2018-02-12T05:15:51.520Z,928.83
2018-02-12T05:16:51.514Z,928.84
2018-02-12T05:17:51.519Z,928.90
2018-02-12T05:18:51.499Z,928.82
2018-02-12T05:19:51.492Z,928.88
2018-02-12T05:20:51.485Z,928.88
2018-02-12T05:21:51.483Z,928.91
2018-02-12T05:22:51.471Z,928.93
2018-02-12T05:23:51.463Z,928.92
2018-02-12T05:24:51.458Z,928.94
2018-02-12T05:25:51.451Z,928.95
2018-02-12T05:26:51.443Z,928.96
2018-02-12T05:27:51.436Z,928.95
2018-02-12T05:28:51.429Z,928.96
2018-02-12T05:29:51.423Z,928.98
2018-02-12T05:30:51.415Z,928.98
2018-02-12T05:31:51.407Z,928.97
2018-02-12T05:32:51.402Z,928.98
2018-02-12T05:33:51.395Z,928.95
2018-02-12T05:34:51.387Z,928.99
2018-02-12T05:35:51.380Z,929.02
2018-02-12T05:36:51.373Z,929.04
2018-02-12T05:37:51.367Z,929.03
2018-02-12T05:38:51.360Z,929.01
2018-02-12T05:39:51.353Z,929.00
2018-02-12T05:40:51.346Z,928.99
2018-02-12T05:41:51.340Z,929.04
2018-02-12T05:42:51.335Z,929.01
2018-02-12T05:43:51.326Z,929.06
2018-02-12T05:44:51.320Z,929.03
2018-02-12T05:45:51.312Z,929.10
2018-02-12T05:46:51.304Z,929.10
2018-02-12T05:47:51.298Z,929.13
2018-02-12T05:48:51.291Z,929.12
2018-02-12T05:49:51.283Z,929.16
2018-02-12T05:50:51.276Z,929.18
2018-02-12T05:51:51.269Z,929.15
2018-02-12T05:52:51.263Z,929.22
2018-02-12T05:53:51.259Z,929.25
2018-02-12T05:54:51.248Z,929.25
2018-02-12T05:55:51.242Z,929.28
2018-02-12T05:56:51.235Z,929.36
2018-02-12T05:57:51.228Z,929.39
2018-02-12T05:58:51.264Z,929.43
2018-02-12T05:59:51.214Z,929.50
2018-02-12T06:00:51.208Z,929.57
2018-02-12T06:01:51.203Z,929.60
2018-02-12T06:02:51.194Z,929.60
2018-02-12T06:03:51.187Z,929.66
2018-02-12T06:04:51.180Z,929.69
2018-02-12T06:05:51.173Z,929.71
2018-02-12T06:06:51.166Z,929.73
2018-02-12T06:07:51.158Z,929.74
2018-02-12T06:08:51.154Z,929.76
2018-02-12T06:09:51.145Z,929.81
2018-02-12T06:10:51.137Z,929.83
2018-02-12T06:11:51.131Z,929.85
2018-02-12T06:12:51.122Z,929.88
2018-02-12T06:13:51.116Z,929.97
2018-02-12T06:14:51.107Z,929.97
2018-02-12T06:15:51.100Z,929.96
2018-02-12T06:16:51.092Z,930.03
2018-02-12T06:17:51.085Z,930.06
2018-02-12T06:18:51.081Z,930.04
2018-02-12T06:19:51.069Z,930.07
2018-02-12T06:20:51.063Z,930.14
2018-02-12T06:21:51.055Z,930.09
2018-02-12T06:22:51.047Z,930.18
2018-02-12T06:23:51.040Z,930.23
2018-02-12T06:24:51.032Z,930.26
2018-02-12T06:25:51.025Z,930.30
2018-02-12T06:26:51.015Z,930.31
2018-02-12T06:27:51.009Z,930.33
2018-02-12T06:28:51.000Z,930.37
2018-02-12T06:29:50.992Z,930.37
2018-02-12T06:30:50.985Z,930.43
2018-02-12T06:31:50.978Z,930.43
2018-02-12T06:32:50.969Z,930.48
2018-02-12T06:33:50.962Z,930.48
2018-02-12T06:34:50.953Z,930.46
2018-02-12T06:35:50.945Z,930.52
2018-02-12T06:36:50.936Z,930.55
2018-02-12T06:37:50.935Z,930.61
2018-02-12T06:38:50.922Z,930.54
2018-02-12T06:39:50.913Z,930.54
2018-02-12T06:40:50.909Z,930.65
2018-02-12T06:41:50.899Z,930.69
2018-02-12T06:42:50.889Z,930.65
2018-02-12T06:43:50.882Z,930.67
2018-02-12T06:44:50.874Z,930.77
2018-02-12T06:45:50.867Z,930.73
2018-02-12T06:46:50.886Z,930.81
2018-02-12T06:47:50.850Z,930.84
2018-02-12T06:48:50.843Z,930.82
2018-02-12T06:49:50.835Z,930.85
2018-02-12T06:50:50.826Z,930.90
2018-02-12T06:51:50.816Z,930.94
2018-02-12T06:52:50.810Z,930.98
2018-02-12T06:53:50.803Z,931.03
2018-02-12T06:54:50.794Z,931.06
2018-02-12T06:55:50.786Z,931.09
2018-02-12T06:56:50.779Z,931.05
2018-02-12T06:57:50.777Z,931.10
2018-02-12T06:58:50.762Z,931.14
2018-02-12T06:59:50.754Z,931.11
2018-02-12T07:00:50.745Z,931.10
2018-02-12T07:01:50.739Z,931.08
2018-02-12T07:02:50.729Z,931.19
2018-02-12T07:03:50.722Z,931.17
2018-02-12T07:04:50.723Z,931.21
2018-02-12T07:05:50.706Z,931.24
2018-02-12T07:06:50.699Z,931.17
2018-02-12T07:07:50.689Z,931.20
2018-02-12T07:08:50.683Z,931.20
2018-02-12T07:09:50.675Z,931.24
2018-02-12T07:10:50.665Z,931.18
2018-02-12T07:11:50.662Z,931.21
2018-02-12T07:12:50.651Z,931.23
2018-02-12T07:13:50.644Z,931.25
2018-02-12T07:14:50.634Z,931.23
2018-02-12T07:15:50.625Z,931.23
2018-02-12T07:16:50.617Z,931.26
2018-02-12T07:17:50.611Z,931.26
2018-02-12T07:18:50.600Z,931.26
2018-02-12T07:19:50.594Z,931.22
2018-02-12T07:20:50.586Z,931.27
2018-02-12T07:21:50.579Z,931.29
2018-02-12T07:22:50.570Z,931.28
2018-02-12T07:23:50.562Z,931.31
2018-02-12T07:24:50.557Z,931.32
2018-02-12T07:25:50.548Z,931.34
2018-02-12T07:26:50.538Z,931.33
2018-02-12T07:27:50.530Z,931.37
2018-02-12T07:28:50.522Z,931.38
2018-02-12T07:29:50.515Z,931.41
2018-02-12T07:30:50.505Z,931.46
2018-02-12T07:31:50.496Z,931.44
2018-02-12T07:32:50.489Z,931.46
2018-02-12T07:33:50.481Z,931.46
2018-02-12T07:34:50.473Z,931.48
2018-02-12T07:35:50.464Z,931.51
2018-02-12T07:36:50.458Z,931.54
2018-02-12T07:37:50.450Z,931.55
2018-02-12T07:38:50.442Z,931.56
2018-02-12T07:39:50.434Z,931.58
2018-02-12T07:40:50.429Z,931.59
2018-02-12T07:41:50.418Z,931.65
2018-02-12T07:42:50.412Z,931.67
2018-02-12T07:43:50.402Z,931.66
2018-02-12T07:44:50.394Z,931.68
2018-02-12T07:45:50.388Z,931.69
2018-02-12T07:46:50.380Z,931.71
2018-02-12T07:47:50.372Z,931.69
2018-02-12T07:48:50.366Z,931.74
2018-02-12T07:49:50.356Z,931.71
2018-02-12T07:50:50.352Z,931.68
2018-02-12T07:51:50.342Z,931.67
2018-02-12T07:52:50.334Z,931.66
2018-02-12T07:53:50.328Z,931.68
2018-02-12T07:54:50.319Z,931.67
2018-02-12T07:55:50.313Z,931.72
2018-02-12T07:56:50.307Z,931.72
2018-02-12T07:57:50.299Z,931.73
2018-02-12T07:58:50.290Z,931.75
2018-02-12T07:59:50.283Z,931.73
2018-02-12T08:00:50.277Z,931.76
2018-02-12T08:01:50.271Z,931.79
2018-02-12T08:02:50.262Z,931.83
2018-02-12T08:03:50.255Z,931.79
2018-02-12T08:04:50.248Z,931.79
2018-02-12T08:05:50.241Z,931.81
2018-02-12T08:06:50.233Z,931.82
2018-02-12T08:07:50.226Z,931.82
2018-02-12T08:08:50.218Z,931.85
2018-02-12T08:09:50.211Z,931.86
2018-02-12T08:10:50.204Z,931.91
2018-02-12T08:11:50.198Z,931.85
2018-02-12T08:12:50.190Z,931.88
2018-02-12T08:13:50.186Z,931.95
2018-02-12T08:14:50.175Z,931.95
2018-02-12T08:15:50.168Z,931.99
2018-02-12T08:16:50.162Z,932.02
2018-02-12T08:17:50.157Z,932.05
2018-02-12T08:18:50.147Z,932.09
2018-02-12T08:19:50.139Z,932.07
2018-02-12T08:20:50.132Z,932.12
2018-02-12T08:21:50.126Z,932.05
2018-02-12T08:22:50.118Z,932.02
2018-02-12T08:23:50.111Z,932.07
2018-02-12T08:24:50.103Z,932.06
2018-02-12T08:25:50.096Z,932.09
2018-02-12T08:26:50.091Z,932.09
2018-02-12T08:27:50.085Z,932.13
2018-02-12T08:28:50.074Z,932.17
2018-02-12T08:29:50.069Z,932.22
2018-02-12T08:30:50.060Z,932.23
2018-02-12T08:31:50.052Z,932.22
2018-02-12T08:32:50.048Z,932.20
2018-02-12T08:33:50.039Z,932.22
2018-02-12T08:34:50.032Z,932.23
2018-02-12T08:35:50.026Z,932.23
2018-02-12T08:36:50.019Z,932.34
2018-02-12T08:37:50.012Z,932.33
2018-02-12T08:38:50.003Z,932.38
2018-02-12T08:39:50.434Z,932.42
2018-02-12T08:40:49.990Z,932.49
2018-02-12T08:41:49.981Z,932.48
2018-02-12T08:42:49.977Z,932.48
2018-02-12T08:43:49.968Z,932.45
2018-02-12T08:44:50.008Z,932.43
2018-02-12T08:45:49.953Z,932.46
2018-02-12T08:46:49.946Z,932.54
2018-02-12T08:47:49.938Z,932.50
2018-02-12T08:48:49.930Z,932.46
2018-02-12T08:49:49.925Z,932.46
2018-02-12T08:50:49.915Z,932.51
2018-02-12T08:51:49.909Z,932.50
2018-02-12T08:52:49.902Z,932.50
2018-02-12T08:53:49.894Z,932.53
2018-02-12T08:54:49.886Z,932.64
2018-02-12T08:55:49.879Z,932.67
2018-02-12T08:56:49.870Z,932.63
2018-02-12T08:57:49.863Z,932.65
2018-02-12T08:58:49.855Z,932.65
2018-02-12T08:59:49.848Z,932.63
2018-02-12T09:00:49.840Z,932.66
2018-02-12T09:01:49.832Z,932.62
2018-02-12T09:02:49.824Z,932.64
2018-02-12T09:03:49.817Z,932.69
2018-02-12T09:04:49.810Z,932.74
2018-02-12T09:05:49.801Z,932.74
2018-02-12T09:06:49.793Z,932.72
2018-02-12T09:07:49.785Z,932.76
2018-02-12T09:08:49.776Z,932.83
2018-02-12T09:09:49.769Z,932.82
2018-02-12T09:10:49.762Z,932.88
2018-02-12T09:11:49.754Z,932.88
2018-02-12T09:12:49.746Z,932.89
2018-02-12T09:13:49.738Z,932.85
2018-02-12T09:14:49.730Z,932.93
2018-02-12T09:15:49.725Z,932.97
2018-02-12T09:16:49.714Z,932.95
2018-02-12T09:17:49.705Z,932.95
2018-02-12T09:18:49.698Z,933.00
2018-02-12T09:19:49.690Z,933.01
2018-02-12T09:20:49.696Z,933.01
2018-02-12T09:21:49.675Z,932.99
2018-02-12T09:22:49.667Z,933.01
2018-02-12T09:23:49.659Z,933.03
2018-02-12T09:24:49.652Z,933.05
2018-02-12T09:25:49.644Z,933.07
2018-02-12T09:26:49.635Z,933.08
2018-02-12T09:27:49.628Z,933.09
2018-02-12T09:28:49.620Z,933.12
2018-02-12T09:29:49.617Z,933.14
2018-02-12T09:30:49.606Z,933.11
2018-02-12T09:31:49.596Z,933.10
2018-02-12T09:32:49.590Z,933.14
2018-02-12T09:33:49.584Z,933.12
2018-02-12T09:34:49.576Z,933.17
2018-02-12T09:35:49.568Z,933.16
2018-02-12T09:36:49.560Z,933.20
2018-02-12T09:37:49.555Z,933.21
2018-02-12T09:38:49.547Z,933.21
2018-02-12T09:39:49.540Z,933.22
2018-02-12T09:40:49.533Z,933.27
2018-02-12T09:41:49.527Z,933.24
2018-02-12T09:42:49.519Z,933.27
2018-02-12T09:43:49.513Z,933.28
2018-02-12T09:44:49.507Z,933.28
2018-02-12T09:45:49.501Z,933.27
2018-02-12T09:46:49.494Z,933.27
2018-02-12T09:47:49.488Z,933.30
2018-02-12T09:48:49.482Z,933.28
2018-02-12T09:49:49.475Z,933.28
2018-02-12T09:50:49.470Z,933.27
2018-02-12T09:51:49.463Z,933.31
2018-02-12T09:52:49.458Z,933.31
2018-02-12T09:53:49.456Z,933.38
2018-02-12T09:54:49.448Z,933.35
2018-02-12T09:55:49.742Z,933.31
2018-02-12T09:56:49.437Z,933.34
2018-02-12T09:57:49.434Z,933.36
2018-02-12T09:58:49.434Z,933.40
2018-02-12T09:59:49.425Z,933.44
2018-02-12T10:00:49.424Z,933.42
2018-02-12T10:01:49.416Z,933.42
2018-02-12T10:02:49.413Z,933.42
2018-02-12T10:03:49.411Z,933.43
2018-02-12T10:04:49.408Z,933.44
2018-02-12T10:05:49.408Z,933.43
2018-02-12T10:06:49.400Z,933.45
2018-02-12T10:07:49.398Z,933.40
2018-02-12T10:08:49.395Z,933.38
2018-02-12T10:09:49.394Z,933.40
2018-02-12T10:10:49.389Z,933.41
2018-02-12T10:11:49.412Z,933.40
2018-02-12T10:12:49.384Z,933.40
2018-02-12T10:13:49.383Z,933.45
2018-02-12T10:14:49.379Z,933.47
2018-02-12T10:15:49.378Z,933.44
2018-02-12T10:16:49.379Z,933.46
2018-02-12T10:17:49.373Z,933.49
2018-02-12T10:18:49.371Z,933.47
2018-02-12T10:19:49.369Z,933.44
2018-02-12T10:20:49.375Z,933.45
2018-02-12T10:21:49.367Z,933.49
2018-02-12T10:22:49.362Z,933.48
2018-02-12T10:23:49.359Z,933.47
2018-02-12T10:24:49.357Z,933.45
2018-02-12T10:25:49.354Z,933.46
2018-02-12T10:26:49.352Z,933.45
2018-02-12T10:27:49.350Z,933.46
2018-02-12T10:28:49.347Z,933.51
2018-02-12T10:29:49.344Z,933.50
2018-02-12T10:30:49.342Z,933.50
2018-02-12T10:31:49.340Z,933.50
2018-02-12T10:32:49.337Z,933.54
2018-02-12T10:33:49.333Z,933.52
2018-02-12T10:34:49.330Z,933.51
2018-02-12T10:35:49.327Z,933.52
2018-02-12T10:36:49.326Z,933.51
2018-02-12T10:37:49.323Z,933.54
2018-02-12T10:38:49.319Z,933.51
2018-02-12T10:39:49.316Z,933.50
2018-02-12T10:40:49.314Z,933.52
2018-02-12T10:41:49.314Z,933.46
2018-02-12T10:42:49.310Z,933.47
2018-02-12T10:43:49.304Z,933.47
2018-02-12T10:44:49.301Z,933.45
2018-02-12T10:45:49.298Z,933.48
2018-02-12T10:46:49.298Z,933.46
2018-02-12T10:47:49.290Z,933.49
2018-02-12T10:48:49.288Z,933.52
2018-02-12T10:49:49.285Z,933.49
2018-02-12T10:50:49.280Z,933.52
2018-02-12T10:51:49.278Z,933.56
2018-02-12T10:52:49.276Z,933.49
2018-02-12T10:53:49.270Z,933.56
2018-02-12T10:54:49.268Z,933.52
2018-02-12T10:55:49.263Z,933.54
2018-02-12T10:56:49.259Z,933.53
2018-02-12T10:57:49.256Z,933.55
2018-02-12T10:58:49.252Z,933.58
2018-02-12T10:59:49.249Z,933.52
2018-02-12T11:00:49.246Z,933.57
2018-02-12T11:01:49.243Z,933.48
2018-02-12T11:02:49.237Z,933.49
2018-02-12T11:03:49.233Z,933.44
2018-02-12T11:04:49.231Z,933.55
2018-02-12T11:05:49.227Z,933.56
2018-02-12T11:06:49.223Z,933.59
2018-02-12T11:07:49.220Z,933.67
2018-02-12T11:08:49.217Z,933.65
2018-02-12T11:09:49.213Z,933.62
2018-02-12T11:10:49.210Z,933.64
2018-02-12T11:11:49.208Z,933.57
2018-02-12T11:12:49.207Z,933.60
2018-02-12T11:13:49.204Z,933.56
2018-02-12T11:14:49.200Z,933.62
2018-02-12T11:15:49.198Z,933.63
2018-02-12T11:16:49.195Z,933.60
2018-02-12T11:17:49.193Z,933.62
2018-02-12T11:18:49.195Z,933.62
2018-02-12T11:19:49.186Z,933.55
2018-02-12T11:20:49.186Z,933.64
2018-02-12T11:21:49.182Z,933.63
2018-02-12T11:22:49.338Z,933.60
2018-02-12T11:23:49.174Z,933.58
2018-02-12T11:24:49.171Z,933.58
2018-02-12T11:25:49.167Z,933.61
2018-02-12T11:26:49.162Z,933.52
2018-02-12T11:27:49.160Z,933.58
2018-02-12T11:28:49.156Z,933.55
2018-02-12T11:29:49.153Z,933.58
2018-02-12T11:30:49.152Z,933.55
2018-02-12T11:31:49.144Z,933.59
2018-02-12T11:32:49.141Z,933.57
2018-02-12T11:33:49.137Z,933.54
2018-02-12T11:34:49.132Z,933.57
2018-02-12T11:35:49.129Z,933.63
2018-02-12T11:36:49.125Z,933.59
2018-02-12T11:37:49.122Z,933.55
2018-02-12T11:38:49.116Z,933.61
2018-02-12T11:39:49.149Z,933.62
2018-02-12T11:40:49.108Z,933.61
2018-02-12T11:41:49.104Z,933.62
2018-02-12T11:42:49.098Z,933.57
2018-02-12T11:43:49.100Z,933.58
2018-02-12T11:44:49.089Z,933.59
2018-02-12T11:45:49.084Z,933.56
2018-02-12T11:46:49.079Z,933.67
2018-02-12T11:47:49.075Z,933.59
2018-02-12T11:48:49.070Z,933.63
2018-02-12T11:49:49.064Z,933.61
2018-02-12T11:50:49.058Z,933.68
2018-02-12T11:51:49.053Z,933.67
2018-02-12T11:52:49.047Z,933.67
2018-02-12T11:53:49.042Z,933.71
2018-02-12T11:54:49.035Z,933.73
2018-02-12T11:55:49.030Z,933.68
2018-02-12T11:56:49.024Z,933.74
2018-02-12T11:57:49.078Z,933.70
2018-02-12T11:58:49.011Z,933.68
2018-02-12T11:59:49.007Z,933.65
2018-02-12T12:00:49.001Z,933.72
2018-02-12T12:01:48.996Z,933.70
2018-02-12T12:02:48.988Z,933.70
2018-02-12T12:03:48.982Z,933.74
2018-02-12T12:04:48.978Z,933.74
2018-02-12T12:05:48.971Z,933.70
2018-02-12T12:06:48.965Z,933.73
2018-02-12T12:07:48.960Z,933.75
2018-02-12T12:08:48.953Z,933.78
2018-02-12T12:09:48.950Z,933.74
2018-02-12T12:10:48.940Z,933.74
2018-02-12T12:11:48.934Z,933.78
2018-02-12T12:12:48.928Z,933.82
2018-02-12T12:13:48.922Z,933.83
2018-02-12T12:14:48.916Z,933.79
2018-02-12T12:15:48.916Z,933.82
2018-02-12T12:16:48.905Z,933.80
2018-02-12T12:17:48.899Z,933.82
2018-02-12T12:18:48.893Z,933.81
2018-02-12T12:19:48.886Z,933.83
2018-02-12T12:20:48.886Z,933.86
2018-02-12T12:21:48.878Z,933.86
2018-02-12T12:22:48.873Z,933.92
2018-02-12T12:23:48.866Z,933.90
2018-02-12T12:24:48.856Z,933.95
2018-02-12T12:25:48.850Z,933.94
2018-02-12T12:26:48.848Z,933.93
2018-02-12T12:27:48.839Z,933.98
2018-02-12T12:28:48.834Z,933.96
2018-02-12T12:29:48.829Z,933.97